NK71 weather

Marcellus Airport
Marcellus, New York, United States

Public forecast

Using degrees Fahrenheit for public forecast. Weather courtesy of forecast.io.

Closest aviation weather report (METAR) to Marcellus Airport

Closest report is Syracuse Hancock International Airport, 12.2 nm (22.7 km) ENE. Retrieved 2020/08/08 10:54 UTC (46 minutes ago):

KSYR 081054Z 10003KT 10SM FEW030 BKN100 BKN260 19/18 A3015 RMK AO2 SLP205 T01940178

Closest aviation forecast (TAF) to Marcellus Airport

Closest forecast is Syracuse Hancock International Airport, 12.2 nm (22.7 km) ENE. Retrieved 2020/08/08 06:22 UTC (5 hours ago):

TAF KSYR 080520Z 0806/0906 VRB03KT P6SM OVC070 FM080900 00000KT P6SM BKN035 FM081600 31003KT P6SM BKN050 FM090200 00000KT P6SM SCT070